sensor_id;sensor_type;location;lat;lon;timestamp;temperature;humidity
13589;DHT22;6865;52.552;13.434;2022-09-16T00:00:52;12.50;99.90
13589;DHT22;6865;52.552;13.434;2022-09-16T00:03:20;12.40;99.90
13589;DHT22;6865;52.552;13.434;2022-09-16T00:05:49;12.40;99.90
13589;DHT22;6865;52.552;13.434;2022-09-16T00:08:17;12.40;99.90
13589;DHT22;6865;52.552;13.434;2022-09-16T00:10:44;12.30;99.90
13589;DHT22;6865;52.552;13.434;2022-09-16T00:13:12;12.30;99.90
13589;DHT22;6865;52.552;13.434;2022-09-16T00:15:46;12.30;99.90
13589;DHT22;6865;52.552;13.434;2022-09-16T00:18:13;12.30;99.90
13589;DHT22;6865;52.552;13.434;2022-09-16T00:20:51;12.30;99.90
13589;DHT22;6865;52.552;13.434;2022-09-16T00:23:18;12.20;99.90
13589;DHT22;6865;52.552;13.434;2022-09-16T00:25:53;12.10;99.90
13589;DHT22;6865;52.552;13.434;2022-09-16T00:28:21;12.10;99.90
13589;DHT22;6865;52.552;13.434;2022-09-16T00:30:48;12.10;99.90
13589;DHT22;6865;52.552;13.434;2022-09-16T00:33:15;12.10;99.90
13589;DHT22;6865;52.552;13.434;2022-09-16T00:35:42;12.10;99.90
13589;DHT22;6865;52.552;13.434;2022-09-16T00:38:09;12.10;99.90
13589;DHT22;6865;52.552;13.434;2022-09-16T00:40:43;12.10;99.90
13589;DHT22;6865;52.552;13.434;2022-09-16T00:43:17;12.10;99.90
13589;DHT22;6865;52.552;13.434;2022-09-16T00:45:49;12.00;99.90
13589;DHT22;6865;52.552;13.434;2022-09-16T00:48:22;12.10;99.90
13589;DHT22;6865;52.552;13.434;2022-09-16T00:50:53;12.00;99.90
13589;DHT22;6865;52.552;13.434;2022-09-16T00:53:26;12.00;99.90
13589;DHT22;6865;52.552;13.434;2022-09-16T00:55:55;11.90;99.90
13589;DHT22;6865;52.552;13.434;2022-09-16T00:58:40;11.90;99.90
13589;DHT22;6865;52.552;13.434;2022-09-16T01:01:08;11.80;99.90
13589;DHT22;6865;52.552;13.434;2022-09-16T01:03:53;11.80;99.90
13589;DHT22;6865;52.552;13.434;2022-09-16T01:06:21;11.90;99.90
13589;DHT22;6865;52.552;13.434;2022-09-16T01:08:49;11.90;99.90
13589;DHT22;6865;52.552;13.434;2022-09-16T01:11:16;11.80;99.90
13589;DHT22;6865;52.552;13.434;2022-09-16T01:13:43;11.80;99.90
13589;DHT22;6865;52.552;13.434;2022-09-16T01:16:11;11.80;99.90
13589;DHT22;6865;52.552;13.434;2022-09-16T01:18:47;11.80;99.90
13589;DHT22;6865;52.552;13.434;2022-09-16T01:21:24;11.70;99.90
13589;DHT22;6865;52.552;13.434;2022-09-16T01:24:11;11.70;99.90
13589;DHT22;6865;52.552;13.434;2022-09-16T01:27:00;11.70;99.90
13589;DHT22;6865;52.552;13.434;2022-09-16T01:33:02;11.70;99.90
13589;DHT22;6865;52.552;13.434;2022-09-16T01:35:44;11.60;99.90
13589;DHT22;6865;52.552;13.434;2022-09-16T01:38:49;11.60;99.90
13589;DHT22;6865;52.552;13.434;2022-09-16T01:41:54;11.60;99.90
13589;DHT22;6865;52.552;13.434;2022-09-16T01:47:09;11.50;99.90
13589;DHT22;6865;52.552;13.434;2022-09-16T01:49:45;11.50;99.90
13589;DHT22;6865;52.552;13.434;2022-09-16T01:52:22;11.50;99.90
13589;DHT22;6865;52.552;13.434;2022-09-16T01:54:59;11.50;99.90
13589;DHT22;6865;52.552;13.434;2022-09-16T01:57:52;11.50;99.90
13589;DHT22;6865;52.552;13.434;2022-09-16T02:00:21;11.50;99.90
13589;DHT22;6865;52.552;13.434;2022-09-16T02:03:25;11.40;99.90
13589;DHT22;6865;52.552;13.434;2022-09-16T02:05:50;11.40;99.90
13589;DHT22;6865;52.552;13.434;2022-09-16T02:08:41;11.40;99.90
13589;DHT22;6865;52.552;13.434;2022-09-16T02:11:12;11.40;99.90
13589;DHT22;6865;52.552;13.434;2022-09-16T02:13:47;11.40;99.90
13589;DHT22;6865;52.552;13.434;2022-09-16T02:16:18;11.40;99.90
13589;DHT22;6865;52.552;13.434;2022-09-16T02:18:53;11.40;99.90
13589;DHT22;6865;52.552;13.434;2022-09-16T02:21:22;11.30;99.90
13589;DHT22;6865;52.552;13.434;2022-09-16T02:23:53;11.30;99.90
13589;DHT22;6865;52.552;13.434;2022-09-16T02:26:27;11.30;99.90
13589;DHT22;6865;52.552;13.434;2022-09-16T02:28:55;11.30;99.90
13589;DHT22;6865;52.552;13.434;2022-09-16T02:31:28;11.30;99.90
13589;DHT22;6865;52.552;13.434;2022-09-16T02:34:02;11.30;99.90
13589;DHT22;6865;52.552;13.434;2022-09-16T02:36:33;11.30;99.90
13589;DHT22;6865;52.552;13.434;2022-09-16T02:39:04;11.30;99.90
13589;DHT22;6865;52.552;13.434;2022-09-16T02:41:37;11.30;99.90
13589;DHT22;6865;52.552;13.434;2022-09-16T02:44:04;11.30;99.90
13589;DHT22;6865;52.552;13.434;2022-09-16T02:46:41;11.20;99.90
13589;DHT22;6865;52.552;13.434;2022-09-16T02:52:05;11.20;99.90
13589;DHT22;6865;52.552;13.434;2022-09-16T02:54:54;11.20;99.90
13589;DHT22;6865;52.552;13.434;2022-09-16T02:57:23;11.20;99.90
13589;DHT22;6865;52.552;13.434;2022-09-16T02:59:49;11.20;99.90
13589;DHT22;6865;52.552;13.434;2022-09-16T03:02:16;11.20;99.90
13589;DHT22;6865;52.552;13.434;2022-09-16T03:04:43;11.20;99.90
13589;DHT22;6865;52.552;13.434;2022-09-16T03:07:10;11.10;99.90
13589;DHT22;6865;52.552;13.434;2022-09-16T03:09:40;11.20;99.90
13589;DHT22;6865;52.552;13.434;2022-09-16T03:12:24;11.20;99.90
13589;DHT22;6865;52.552;13.434;2022-09-16T03:15:26;11.10;99.90
13589;DHT22;6865;52.552;13.434;2022-09-16T03:18:04;11.10;99.90
13589;DHT22;6865;52.552;13.434;2022-09-16T03:23:39;11.10;99.90
13589;DHT22;6865;52.552;13.434;2022-09-16T03:26:23;11.10;99.90
13589;DHT22;6865;52.552;13.434;2022-09-16T03:29:19;11.10;99.90
13589;DHT22;6865;52.552;13.434;2022-09-16T03:31:57;11.10;99.90
13589;DHT22;6865;52.552;13.434;2022-09-16T03:34:32;11.10;99.90
13589;DHT22;6865;52.552;13.434;2022-09-16T03:37:05;11.10;99.90
13589;DHT22;6865;52.552;13.434;2022-09-16T03:39:33;11.10;99.90
13589;DHT22;6865;52.552;13.434;2022-09-16T03:42:02;11.10;99.90
13589;DHT22;6865;52.552;13.434;2022-09-16T03:44:31;11.10;99.90
13589;DHT22;6865;52.552;13.434;2022-09-16T03:46:58;11.10;99.90
13589;DHT22;6865;52.552;13.434;2022-09-16T03:49:25;11.10;99.90
13589;DHT22;6865;52.552;13.434;2022-09-16T03:51:51;11.10;99.90
13589;DHT22;6865;52.552;13.434;2022-09-16T03:54:18;11.10;99.90
13589;DHT22;6865;52.552;13.434;2022-09-16T03:56:44;10.90;99.90
13589;DHT22;6865;52.552;13.434;2022-09-16T03:59:11;11.10;99.90
13589;DHT22;6865;52.552;13.434;2022-09-16T04:01:37;11.10;99.90
13589;DHT22;6865;52.552;13.434;2022-09-16T04:04:04;11.10;99.90
13589;DHT22;6865;52.552;13.434;2022-09-16T04:06:31;11.10;99.90
13589;DHT22;6865;52.552;13.434;2022-09-16T04:08:57;11.10;99.90
13589;DHT22;6865;52.552;13.434;2022-09-16T04:11:26;11.10;99.90
13589;DHT22;6865;52.552;13.434;2022-09-16T04:13:55;11.10;99.90
13589;DHT22;6865;52.552;13.434;2022-09-16T04:16:21;11.10;99.90
13589;DHT22;6865;52.552;13.434;2022-09-16T04:18:48;11.10;99.90
13589;DHT22;6865;52.552;13.434;2022-09-16T04:21:15;11.10;99.90
13589;DHT22;6865;52.552;13.434;2022-09-16T04:23:42;11.00;99.90
13589;DHT22;6865;52.552;13.434;2022-09-16T04:26:10;11.00;99.90
13589;DHT22;6865;52.552;13.434;2022-09-16T04:28:36;11.00;99.90
13589;DHT22;6865;52.552;13.434;2022-09-16T04:31:05;11.00;99.90
13589;DHT22;6865;52.552;13.434;2022-09-16T04:33:33;11.00;99.90
13589;DHT22;6865;52.552;13.434;2022-09-16T04:36:05;11.00;99.90
13589;DHT22;6865;52.552;13.434;2022-09-16T04:38:32;10.90;99.90
13589;DHT22;6865;52.552;13.434;2022-09-16T04:41:04;10.90;99.90
13589;DHT22;6865;52.552;13.434;2022-09-16T04:43:31;10.90;99.90
13589;DHT22;6865;52.552;13.434;2022-09-16T04:45:59;10.90;99.90
13589;DHT22;6865;52.552;13.434;2022-09-16T04:48:26;10.90;99.90
13589;DHT22;6865;52.552;13.434;2022-09-16T04:50:53;10.80;99.90
13589;DHT22;6865;52.552;13.434;2022-09-16T04:53:20;10.80;99.90
13589;DHT22;6865;52.552;13.434;2022-09-16T04:55:47;10.80;99.90
13589;DHT22;6865;52.552;13.434;2022-09-16T04:58:14;10.90;99.90
13589;DHT22;6865;52.552;13.434;2022-09-16T05:00:40;11.00;99.90
13589;DHT22;6865;52.552;13.434;2022-09-16T05:03:07;11.00;99.90
13589;DHT22;6865;52.552;13.434;2022-09-16T05:05:33;11.00;99.90
13589;DHT22;6865;52.552;13.434;2022-09-16T05:08:00;10.90;99.90
13589;DHT22;6865;52.552;13.434;2022-09-16T05:10:27;11.00;99.90
13589;DHT22;6865;52.552;13.434;2022-09-16T05:12:53;11.00;99.90
13589;DHT22;6865;52.552;13.434;2022-09-16T05:15:20;11.00;99.90
13589;DHT22;6865;52.552;13.434;2022-09-16T05:17:52;11.10;99.90
13589;DHT22;6865;52.552;13.434;2022-09-16T05:20:18;11.00;99.90
13589;DHT22;6865;52.552;13.434;2022-09-16T05:22:48;11.00;99.90
13589;DHT22;6865;52.552;13.434;2022-09-16T05:25:15;11.00;99.90
13589;DHT22;6865;52.552;13.434;2022-09-16T05:27:41;11.00;99.90
13589;DHT22;6865;52.552;13.434;2022-09-16T05:30:09;11.00;99.90
13589;DHT22;6865;52.552;13.434;2022-09-16T05:32:35;11.00;99.90
13589;DHT22;6865;52.552;13.434;2022-09-16T05:35:03;11.00;99.90
13589;DHT22;6865;52.552;13.434;2022-09-16T05:37:30;11.10;99.90
13589;DHT22;6865;52.552;13.434;2022-09-16T05:39:56;11.10;99.90
13589;DHT22;6865;52.552;13.434;2022-09-16T05:42:23;11.20;99.90
13589;DHT22;6865;52.552;13.434;2022-09-16T05:44:49;11.20;99.90
13589;DHT22;6865;52.552;13.434;2022-09-16T05:47:16;11.30;99.90
13589;DHT22;6865;52.552;13.434;2022-09-16T05:49:43;11.30;99.90
13589;DHT22;6865;52.552;13.434;2022-09-16T05:52:09;11.30;99.90
13589;DHT22;6865;52.552;13.434;2022-09-16T05:54:36;11.40;99.90
13589;DHT22;6865;52.552;13.434;2022-09-16T05:57:02;11.40;99.90
13589;DHT22;6865;52.552;13.434;2022-09-16T05:59:32;11.50;99.90
13589;DHT22;6865;52.552;13.434;2022-09-16T06:01:59;11.50;99.90
13589;DHT22;6865;52.552;13.434;2022-09-16T06:04:26;11.50;99.90
13589;DHT22;6865;52.552;13.434;2022-09-16T06:06:52;11.60;99.90
13589;DHT22;6865;52.552;13.434;2022-09-16T06:09:21;11.60;99.90
13589;DHT22;6865;52.552;13.434;2022-09-16T06:11:49;11.60;99.90
13589;DHT22;6865;52.552;13.434;2022-09-16T06:14:18;11.60;99.90
13589;DHT22;6865;52.552;13.434;2022-09-16T06:16:45;11.70;99.90
13589;DHT22;6865;52.552;13.434;2022-09-16T06:19:14;11.70;99.90
13589;DHT22;6865;52.552;13.434;2022-09-16T06:21:41;11.80;99.90
13589;DHT22;6865;52.552;13.434;2022-09-16T06:24:10;11.80;99.90
13589;DHT22;6865;52.552;13.434;2022-09-16T06:26:38;11.60;99.90
13589;DHT22;6865;52.552;13.434;2022-09-16T06:29:05;12.10;99.90
13589;DHT22;6865;52.552;13.434;2022-09-16T06:31:33;12.20;99.90
13589;DHT22;6865;52.552;13.434;2022-09-16T06:34:00;12.30;99.90
13589;DHT22;6865;52.552;13.434;2022-09-16T06:36:45;12.30;99.90
13589;DHT22;6865;52.552;13.434;2022-09-16T06:39:13;12.30;99.90
13589;DHT22;6865;52.552;13.434;2022-09-16T06:41:40;12.50;99.90
13589;DHT22;6865;52.552;13.434;2022-09-16T06:44:07;12.50;99.90
13589;DHT22;6865;52.552;13.434;2022-09-16T06:46:33;12.50;99.90
13589;DHT22;6865;52.552;13.434;2022-09-16T06:49:00;12.50;99.90
13589;DHT22;6865;52.552;13.434;2022-09-16T06:51:32;12.30;99.90
13589;DHT22;6865;52.552;13.434;2022-09-16T06:54:01;12.50;99.90
13589;DHT22;6865;52.552;13.434;2022-09-16T06:56:28;12.50;99.90
13589;DHT22;6865;52.552;13.434;2022-09-16T06:58:55;12.40;99.90
13589;DHT22;6865;52.552;13.434;2022-09-16T07:01:25;12.70;99.90
13589;DHT22;6865;52.552;13.434;2022-09-16T07:03:52;12.90;99.90
13589;DHT22;6865;52.552;13.434;2022-09-16T07:06:21;13.00;99.90
13589;DHT22;6865;52.552;13.434;2022-09-16T07:09:04;12.90;99.90
13589;DHT22;6865;52.552;13.434;2022-09-16T07:11:31;12.80;99.90
13589;DHT22;6865;52.552;13.434;2022-09-16T07:13:58;12.80;99.90
13589;DHT22;6865;52.552;13.434;2022-09-16T07:16:26;12.90;99.90
13589;DHT22;6865;52.552;13.434;2022-09-16T07:18:53;13.00;99.90
13589;DHT22;6865;52.552;13.434;2022-09-16T07:21:27;13.10;99.90
13589;DHT22;6865;52.552;13.434;2022-09-16T07:23:57;13.00;99.90
13589;DHT22;6865;52.552;13.434;2022-09-16T07:26:27;13.10;99.90
13589;DHT22;6865;52.552;13.434;2022-09-16T07:28:54;13.30;99.90
13589;DHT22;6865;52.552;13.434;2022-09-16T07:31:23;13.10;99.90
13589;DHT22;6865;52.552;13.434;2022-09-16T07:33:53;13.00;99.90
13589;DHT22;6865;52.552;13.434;2022-09-16T07:36:27;13.00;99.90
13589;DHT22;6865;52.552;13.434;2022-09-16T07:38:56;13.00;99.90
13589;DHT22;6865;52.552;13.434;2022-09-16T07:41:28;13.00;99.90
13589;DHT22;6865;52.552;13.434;2022-09-16T07:43:56;12.90;99.90
13589;DHT22;6865;52.552;13.434;2022-09-16T07:46:28;13.10;99.90
13589;DHT22;6865;52.552;13.434;2022-09-16T07:48:58;13.00;99.90
13589;DHT22;6865;52.552;13.434;2022-09-16T07:51:26;13.10;99.90
13589;DHT22;6865;52.552;13.434;2022-09-16T07:53:56;13.30;99.90
13589;DHT22;6865;52.552;13.434;2022-09-16T07:56:27;13.30;99.90
13589;DHT22;6865;52.552;13.434;2022-09-16T07:58:55;13.40;99.90
13589;DHT22;6865;52.552;13.434;2022-09-16T08:01:23;13.50;99.90
13589;DHT22;6865;52.552;13.434;2022-09-16T08:03:50;13.60;99.90
13589;DHT22;6865;52.552;13.434;2022-09-16T08:06:19;13.80;99.90
13589;DHT22;6865;52.552;13.434;2022-09-16T08:08:46;13.80;99.90
13589;DHT22;6865;52.552;13.434;2022-09-16T08:11:14;13.90;99.90
13589;DHT22;6865;52.552;13.434;2022-09-16T08:13:42;13.90;99.90
13589;DHT22;6865;52.552;13.434;2022-09-16T08:16:20;13.90;99.90
13589;DHT22;6865;52.552;13.434;2022-09-16T08:18:49;14.00;99.90
13589;DHT22;6865;52.552;13.434;2022-09-16T08:21:18;14.20;99.90
13589;DHT22;6865;52.552;13.434;2022-09-16T08:23:45;14.30;99.90
13589;DHT22;6865;52.552;13.434;2022-09-16T08:26:13;14.60;99.90
13589;DHT22;6865;52.552;13.434;2022-09-16T08:28:41;14.40;99.90
13589;DHT22;6865;52.552;13.434;2022-09-16T08:31:28;14.60;99.90
13589;DHT22;6865;52.552;13.434;2022-09-16T08:33:54;14.50;99.90
13589;DHT22;6865;52.552;13.434;2022-09-16T08:36:23;14.50;99.90
13589;DHT22;6865;52.552;13.434;2022-09-16T08:38:54;14.70;99.90
13589;DHT22;6865;52.552;13.434;2022-09-16T08:41:43;14.60;99.90
13589;DHT22;6865;52.552;13.434;2022-09-16T08:44:17;14.70;99.90
13589;DHT22;6865;52.552;13.434;2022-09-16T08:46:52;14.70;99.90
13589;DHT22;6865;52.552;13.434;2022-09-16T08:49:45;14.80;99.90
13589;DHT22;6865;52.552;13.434;2022-09-16T08:52:36;14.70;99.90
13589;DHT22;6865;52.552;13.434;2022-09-16T08:55:27;14.60;99.90
13589;DHT22;6865;52.552;13.434;2022-09-16T08:58:12;14.80;99.90
13589;DHT22;6865;52.552;13.434;2022-09-16T09:00:42;14.80;99.90
13589;DHT22;6865;52.552;13.434;2022-09-16T09:05:56;14.80;99.90
13589;DHT22;6865;52.552;13.434;2022-09-16T09:08:51;14.90;99.90
13589;DHT22;6865;52.552;13.434;2022-09-16T09:11:44;14.80;99.90
13589;DHT22;6865;52.552;13.434;2022-09-16T09:14:40;14.80;99.90
13589;DHT22;6865;52.552;13.434;2022-09-16T09:17:32;15.20;99.90
13589;DHT22;6865;52.552;13.434;2022-09-16T09:29:05;15.20;99.90
13589;DHT22;6865;52.552;13.434;2022-09-16T09:32:02;15.40;99.90
13589;DHT22;6865;52.552;13.434;2022-09-16T09:34:54;15.50;99.90
13589;DHT22;6865;52.552;13.434;2022-09-16T09:40:19;15.70;99.90
13589;DHT22;6865;52.552;13.434;2022-09-16T09:43:11;15.80;99.90
13589;DHT22;6865;52.552;13.434;2022-09-16T09:48:20;15.90;99.90
13589;DHT22;6865;52.552;13.434;2022-09-16T09:50:48;16.00;99.90
13589;DHT22;6865;52.552;13.434;2022-09-16T09:53:35;16.10;99.90
13589;DHT22;6865;52.552;13.434;2022-09-16T10:01:19;15.80;99.90
13589;DHT22;6865;52.552;13.434;2022-09-16T10:03:50;15.70;99.90
13589;DHT22;6865;52.552;13.434;2022-09-16T10:06:26;15.70;99.90
13589;DHT22;6865;52.552;13.434;2022-09-16T10:08:55;15.90;99.80
13589;DHT22;6865;52.552;13.434;2022-09-16T10:11:28;16.20;98.70
13589;DHT22;6865;52.552;13.434;2022-09-16T10:13:58;16.40;97.60
13589;DHT22;6865;52.552;13.434;2022-09-16T10:16:36;16.50;96.40
13589;DHT22;6865;52.552;13.434;2022-09-16T10:19:20;16.70;96.80
13589;DHT22;6865;52.552;13.434;2022-09-16T10:21:49;16.60;96.20
13589;DHT22;6865;52.552;13.434;2022-09-16T10:24:31;16.50;96.30
13589;DHT22;6865;52.552;13.434;2022-09-16T10:27:00;16.30;95.50
13589;DHT22;6865;52.552;13.434;2022-09-16T10:29:27;16.50;95.90
13589;DHT22;6865;52.552;13.434;2022-09-16T10:31:54;16.40;95.50
13589;DHT22;6865;52.552;13.434;2022-09-16T10:34:30;16.30;95.70
13589;DHT22;6865;52.552;13.434;2022-09-16T10:37:03;16.20;96.10
13589;DHT22;6865;52.552;13.434;2022-09-16T10:39:31;16.50;96.00
13589;DHT22;6865;52.552;13.434;2022-09-16T10:41:58;16.70;95.90
13589;DHT22;6865;52.552;13.434;2022-09-16T10:44:31;16.90;95.10
13589;DHT22;6865;52.552;13.434;2022-09-16T10:47:01;17.10;92.90
13589;DHT22;6865;52.552;13.434;2022-09-16T10:49:36;16.90;91.80
13589;DHT22;6865;52.552;13.434;2022-09-16T10:52:17;16.60;92.30
13589;DHT22;6865;52.552;13.434;2022-09-16T10:54:44;16.50;92.90
13589;DHT22;6865;52.552;13.434;2022-09-16T10:57:24;16.40;93.30
13589;DHT22;6865;52.552;13.434;2022-09-16T11:00:01;16.40;93.80
13589;DHT22;6865;52.552;13.434;2022-09-16T11:06:05;16.50;94.70
13589;DHT22;6865;52.552;13.434;2022-09-16T11:09:04;16.80;94.10
13589;DHT22;6865;52.552;13.434;2022-09-16T11:11:53;16.90;92.00
13589;DHT22;6865;52.552;13.434;2022-09-16T11:14:34;16.80;90.90
13589;DHT22;6865;52.552;13.434;2022-09-16T11:17:21;16.60;91.00
13589;DHT22;6865;52.552;13.434;2022-09-16T11:20:21;16.50;91.30
13589;DHT22;6865;52.552;13.434;2022-09-16T11:23:01;16.50;91.30
13589;DHT22;6865;52.552;13.434;2022-09-16T11:25:47;16.30;91.10
13589;DHT22;6865;52.552;13.434;2022-09-16T11:31:33;16.50;91.50
13589;DHT22;6865;52.552;13.434;2022-09-16T11:34:17;16.60;91.30
13589;DHT22;6865;52.552;13.434;2022-09-16T11:37:24;16.60;91.10
13589;DHT22;6865;52.552;13.434;2022-09-16T11:40:03;16.70;91.40
13589;DHT22;6865;52.552;13.434;2022-09-16T11:42:47;16.90;90.90
13589;DHT22;6865;52.552;13.434;2022-09-16T11:45:34;17.00;90.70
13589;DHT22;6865;52.552;13.434;2022-09-16T11:48:24;17.20;88.20
13589;DHT22;6865;52.552;13.434;2022-09-16T11:51:10;17.20;87.00
13589;DHT22;6865;52.552;13.434;2022-09-16T11:56:57;17.50;85.80
13589;DHT22;6865;52.552;13.434;2022-09-16T11:59:37;17.80;85.40
13589;DHT22;6865;52.552;13.434;2022-09-16T12:02:25;17.70;82.90
13589;DHT22;6865;52.552;13.434;2022-09-16T12:05:05;17.60;82.00
13589;DHT22;6865;52.552;13.434;2022-09-16T12:07:51;17.50;83.80
13589;DHT22;6865;52.552;13.434;2022-09-16T12:10:41;17.50;83.80
13589;DHT22;6865;52.552;13.434;2022-09-16T12:13:23;17.50;83.30
13589;DHT22;6865;52.552;13.434;2022-09-16T12:15:56;17.60;82.70
13589;DHT22;6865;52.552;13.434;2022-09-16T12:18:30;17.70;83.00
13589;DHT22;6865;52.552;13.434;2022-09-16T12:21:21;17.70;82.70
13589;DHT22;6865;52.552;13.434;2022-09-16T12:23:56;17.70;82.40
13589;DHT22;6865;52.552;13.434;2022-09-16T12:26:45;17.60;80.90
13589;DHT22;6865;52.552;13.434;2022-09-16T12:29:32;17.50;79.50
13589;DHT22;6865;52.552;13.434;2022-09-16T12:32:12;17.50;78.80
13589;DHT22;6865;52.552;13.434;2022-09-16T12:34:51;17.30;79.80
13589;DHT22;6865;52.552;13.434;2022-09-16T12:37:49;17.10;78.60
13589;DHT22;6865;52.552;13.434;2022-09-16T12:40:22;17.00;77.00
13589;DHT22;6865;52.552;13.434;2022-09-16T12:43:11;17.00;76.10
13589;DHT22;6865;52.552;13.434;2022-09-16T12:52:18;17.50;76.50
13589;DHT22;6865;52.552;13.434;2022-09-16T12:55:04;17.60;76.30
13589;DHT22;6865;52.552;13.434;2022-09-16T13:01:12;17.60;76.80
13589;DHT22;6865;52.552;13.434;2022-09-16T13:03:47;17.80;75.90
13589;DHT22;6865;52.552;13.434;2022-09-16T13:06:27;19.40;75.20
13589;DHT22;6865;52.552;13.434;2022-09-16T13:08:55;17.50;74.10
13589;DHT22;6865;52.552;13.434;2022-09-16T13:11:24;17.40;75.00
13589;DHT22;6865;52.552;13.434;2022-09-16T13:14:27;17.50;74.10
13589;DHT22;6865;52.552;13.434;2022-09-16T13:16:58;17.60;75.10
13589;DHT22;6865;52.552;13.434;2022-09-16T13:22:17;17.60;75.90
13589;DHT22;6865;52.552;13.434;2022-09-16T13:24:53;17.60;74.90
13589;DHT22;6865;52.552;13.434;2022-09-16T13:30:13;17.60;73.00
13589;DHT22;6865;52.552;13.434;2022-09-16T13:32:58;17.50;73.00
13589;DHT22;6865;52.552;13.434;2022-09-16T13:37:58;17.80;69.70
13589;DHT22;6865;52.552;13.434;2022-09-16T13:40:28;17.90;69.30
13589;DHT22;6865;52.552;13.434;2022-09-16T13:45:36;17.70;67.70
13589;DHT22;6865;52.552;13.434;2022-09-16T13:50:48;17.60;69.10
13589;DHT22;6865;52.552;13.434;2022-09-16T13:53:23;17.70;70.10
13589;DHT22;6865;52.552;13.434;2022-09-16T14:01:50;17.80;69.60
13589;DHT22;6865;52.552;13.434;2022-09-16T14:07:37;17.60;70.00
13589;DHT22;6865;52.552;13.434;2022-09-16T14:10:30;17.70;70.60
13589;DHT22;6865;52.552;13.434;2022-09-16T14:13:17;17.70;69.10
13589;DHT22;6865;52.552;13.434;2022-09-16T14:15:54;17.70;69.30
13589;DHT22;6865;52.552;13.434;2022-09-16T14:18:24;17.60;69.70
13589;DHT22;6865;52.552;13.434;2022-09-16T14:21:00;17.50;70.40
13589;DHT22;6865;52.552;13.434;2022-09-16T14:23:28;17.40;70.60
13589;DHT22;6865;52.552;13.434;2022-09-16T14:25:56;17.40;71.20
13589;DHT22;6865;52.552;13.434;2022-09-16T14:28:27;17.40;71.70
13589;DHT22;6865;52.552;13.434;2022-09-16T14:31:01;17.50;71.90
13589;DHT22;6865;52.552;13.434;2022-09-16T14:33:34;17.60;71.70
13589;DHT22;6865;52.552;13.434;2022-09-16T14:36:30;17.70;70.90
13589;DHT22;6865;52.552;13.434;2022-09-16T14:39:24;17.70;71.30
13589;DHT22;6865;52.552;13.434;2022-09-16T14:41:52;17.70;71.00
13589;DHT22;6865;52.552;13.434;2022-09-16T14:46:49;17.70;69.60
13589;DHT22;6865;52.552;13.434;2022-09-16T14:49:20;17.70;68.80
13589;DHT22;6865;52.552;13.434;2022-09-16T14:51:54;17.70;68.50
13589;DHT22;6865;52.552;13.434;2022-09-16T14:54:23;17.40;67.50
13589;DHT22;6865;52.552;13.434;2022-09-16T14:57:02;17.70;68.10
13589;DHT22;6865;52.552;13.434;2022-09-16T14:59:33;17.70;64.80
13589;DHT22;6865;52.552;13.434;2022-09-16T15:02:12;17.70;63.00
13589;DHT22;6865;52.552;13.434;2022-09-16T15:04:45;17.70;62.20
13589;DHT22;6865;52.552;13.434;2022-09-16T15:07:22;17.60;61.60
13589;DHT22;6865;52.552;13.434;2022-09-16T15:10:02;17.50;62.20
13589;DHT22;6865;52.552;13.434;2022-09-16T15:12:56;17.50;63.00
13589;DHT22;6865;52.552;13.434;2022-09-16T15:15:26;17.60;63.30
13589;DHT22;6865;52.552;13.434;2022-09-16T15:20:33;17.40;64.30
13589;DHT22;6865;52.552;13.434;2022-09-16T15:23:01;17.30;64.30
13589;DHT22;6865;52.552;13.434;2022-09-16T15:25:33;17.30;64.80
13589;DHT22;6865;52.552;13.434;2022-09-16T15:28:16;17.20;65.20
13589;DHT22;6865;52.552;13.434;2022-09-16T15:30:45;17.20;65.80
13589;DHT22;6865;52.552;13.434;2022-09-16T15:33:26;17.10;66.40
13589;DHT22;6865;52.552;13.434;2022-09-16T15:36:00;17.10;66.80
13589;DHT22;6865;52.552;13.434;2022-09-16T15:38:28;17.20;67.30
13589;DHT22;6865;52.552;13.434;2022-09-16T15:41:09;17.10;66.90
13589;DHT22;6865;52.552;13.434;2022-09-16T15:43:39;17.10;66.90
13589;DHT22;6865;52.552;13.434;2022-09-16T15:46:16;17.20;67.30
13589;DHT22;6865;52.552;13.434;2022-09-16T15:48:52;17.20;68.30
13589;DHT22;6865;52.552;13.434;2022-09-16T15:51:29;17.30;68.60
13589;DHT22;6865;52.552;13.434;2022-09-16T15:54:15;17.40;68.80
13589;DHT22;6865;52.552;13.434;2022-09-16T15:57:07;17.40;68.70
13589;DHT22;6865;52.552;13.434;2022-09-16T16:00:05;17.30;68.70
13589;DHT22;6865;52.552;13.434;2022-09-16T16:03:00;17.10;69.50
13589;DHT22;6865;52.552;13.434;2022-09-16T16:05:29;17.00;70.40
13589;DHT22;6865;52.552;13.434;2022-09-16T16:07:59;16.90;70.90
13589;DHT22;6865;52.552;13.434;2022-09-16T16:10:32;16.80;71.80
13589;DHT22;6865;52.552;13.434;2022-09-16T16:13:01;16.80;72.20
13589;DHT22;6865;52.552;13.434;2022-09-16T16:15:33;16.70;72.90
13589;DHT22;6865;52.552;13.434;2022-09-16T16:18:04;16.60;73.20
13589;DHT22;6865;52.552;13.434;2022-09-16T16:20:32;16.40;73.20
13589;DHT22;6865;52.552;13.434;2022-09-16T16:23:00;16.30;73.70
13589;DHT22;6865;52.552;13.434;2022-09-16T16:25:27;16.30;73.90
13589;DHT22;6865;52.552;13.434;2022-09-16T16:27:54;16.30;74.30
13589;DHT22;6865;52.552;13.434;2022-09-16T16:30:20;16.30;74.60
13589;DHT22;6865;52.552;13.434;2022-09-16T16:32:47;16.20;75.10
13589;DHT22;6865;52.552;13.434;2022-09-16T16:35:14;16.20;74.80
13589;DHT22;6865;52.552;13.434;2022-09-16T16:37:40;16.20;74.90
13589;DHT22;6865;52.552;13.434;2022-09-16T16:40:13;16.20;74.80
13589;DHT22;6865;52.552;13.434;2022-09-16T16:42:40;16.20;75.00
13589;DHT22;6865;52.552;13.434;2022-09-16T16:45:11;16.30;74.50
13589;DHT22;6865;52.552;13.434;2022-09-16T16:47:38;16.30;74.80
13589;DHT22;6865;52.552;13.434;2022-09-16T16:50:05;16.30;74.40
13589;DHT22;6865;52.552;13.434;2022-09-16T16:52:32;16.30;74.60
13589;DHT22;6865;52.552;13.434;2022-09-16T16:54:58;16.30;74.90
13589;DHT22;6865;52.552;13.434;2022-09-16T16:57:25;16.20;74.90
13589;DHT22;6865;52.552;13.434;2022-09-16T16:59:52;16.20;75.40
13589;DHT22;6865;52.552;13.434;2022-09-16T17:02:19;16.10;76.10
13589;DHT22;6865;52.552;13.434;2022-09-16T17:04:45;16.00;76.70
13589;DHT22;6865;52.552;13.434;2022-09-16T17:07:12;15.90;77.60
13589;DHT22;6865;52.552;13.434;2022-09-16T17:09:55;15.90;78.30
13589;DHT22;6865;52.552;13.434;2022-09-16T17:12:25;15.80;78.70
13589;DHT22;6865;52.552;13.434;2022-09-16T17:14:51;15.70;78.60
13589;DHT22;6865;52.552;13.434;2022-09-16T17:17:18;15.60;78.80
13589;DHT22;6865;52.552;13.434;2022-09-16T17:19:45;15.60;79.40
13589;DHT22;6865;52.552;13.434;2022-09-16T17:22:11;15.50;79.30
13589;DHT22;6865;52.552;13.434;2022-09-16T17:24:38;15.40;79.10
13589;DHT22;6865;52.552;13.434;2022-09-16T17:27:05;15.40;79.40
13589;DHT22;6865;52.552;13.434;2022-09-16T17:29:31;15.30;78.90
13589;DHT22;6865;52.552;13.434;2022-09-16T17:31:58;15.20;79.00